createdAt,value
2022-10-22T00:01:49.688Z,6.40
2022-10-22T00:04:57.256Z,7.37
2022-10-22T00:08:03.459Z,7.57
2022-10-22T00:11:16.482Z,7.77
2022-10-22T00:14:22.887Z,8.50
2022-10-22T00:17:29.061Z,8.97
2022-10-22T00:20:35.529Z,6.23
2022-10-22T00:23:42.943Z,5.47
2022-10-22T00:26:50.390Z,5.20
2022-10-22T00:29:56.473Z,6.57
2022-10-22T00:33:02.567Z,5.93
2022-10-22T00:36:10.265Z,8.63
2022-10-22T00:39:17.300Z,7.93
2022-10-22T00:42:27.099Z,6.47
2022-10-22T00:45:33.307Z,5.93
2022-10-22T00:48:39.496Z,7.43
2022-10-22T00:51:45.727Z,7.17
2022-10-22T00:54:53.149Z,12.23
2022-10-22T00:58:02.710Z,10.37
2022-10-22T01:01:10.605Z,7.77
2022-10-22T01:04:16.808Z,8.83
2022-10-22T01:07:25.675Z,7.37
2022-10-22T01:10:44.908Z,7.13
2022-10-22T01:13:59.372Z,6.47
2022-10-22T01:17:09.924Z,7.60
2022-10-22T01:20:28.791Z,7.17
2022-10-22T01:24:06.459Z,6.77
2022-10-22T01:27:24.122Z,7.10
2022-10-22T01:30:32.008Z,6.53
2022-10-22T01:33:39.412Z,7.40
2022-10-22T01:36:47.025Z,8.03
2022-10-22T01:39:55.527Z,6.00
2022-10-22T01:43:05.096Z,7.03
2022-10-22T01:46:14.711Z,5.93
2022-10-22T01:49:34.699Z,6.47
2022-10-22T01:52:57.395Z,7.63
2022-10-22T01:56:18.408Z,8.67
2022-10-22T01:59:34.476Z,5.57
2022-10-22T02:02:49.687Z,6.23
2022-10-22T02:06:00.851Z,5.83
2022-10-22T02:09:09.062Z,5.30
2022-10-22T02:12:16.742Z,6.33
2022-10-22T02:15:25.096Z,7.37
2022-10-22T02:18:37.496Z,5.50
2022-10-22T02:21:46.621Z,7.07
2022-10-22T02:24:53.412Z,7.77
2022-10-22T02:28:06.935Z,8.57
2022-10-22T02:31:18.147Z,9.37
2022-10-22T02:34:31.555Z,6.73
2022-10-22T02:37:39.518Z,9.27
2022-10-22T02:40:46.371Z,10.13
2022-10-22T02:43:56.007Z,9.50
2022-10-22T02:47:02.279Z,8.10
2022-10-22T02:50:10.678Z,7.40
2022-10-22T02:53:19.667Z,8.67
2022-10-22T02:56:25.985Z,11.20
2022-10-22T02:59:32.452Z,9.00
2022-10-22T03:02:39.022Z,10.40
2022-10-22T03:05:46.782Z,9.73
2022-10-22T03:08:52.812Z,7.10
2022-10-22T03:11:59.102Z,8.13
2022-10-22T03:15:06.269Z,12.50
2022-10-22T03:18:12.298Z,9.43
2022-10-22T03:21:27.552Z,14.73
2022-10-22T03:24:44.251Z,13.17
2022-10-22T03:27:51.716Z,9.67
2022-10-22T03:30:57.868Z,10.67
2022-10-22T03:34:04.228Z,9.60
2022-10-22T03:37:12.440Z,9.73
2022-10-22T03:40:19.005Z,11.40
2022-10-22T03:43:24.863Z,9.57
2022-10-22T03:46:30.895Z,10.10
2022-10-22T03:49:37.159Z,9.17
2022-10-22T03:52:44.722Z,8.90
2022-10-22T03:55:50.818Z,10.10
2022-10-22T03:58:58.623Z,11.13
2022-10-22T04:02:05.254Z,10.73
2022-10-22T04:05:11.574Z,15.70
2022-10-22T04:08:19.356Z,12.93
2022-10-22T04:11:25.389Z,13.00
2022-10-22T04:14:31.724Z,12.33
2022-10-22T04:17:38.612Z,12.40
2022-10-22T04:20:44.992Z,13.47
2022-10-22T04:23:54.479Z,17.57
2022-10-22T04:27:00.770Z,15.20
2022-10-22T04:30:08.205Z,18.13
2022-10-22T04:33:14.176Z,14.97
2022-10-22T04:36:20.894Z,28.63
2022-10-22T04:39:28.606Z,13.20
2022-10-22T04:42:34.740Z,12.17
2022-10-22T04:45:40.896Z,16.67
2022-10-22T04:48:48.012Z,15.07
2022-10-22T04:51:53.903Z,20.03
2022-10-22T04:55:01.334Z,13.73
2022-10-22T04:58:07.363Z,11.07
2022-10-22T05:01:15.052Z,15.10
2022-10-22T05:04:21.283Z,22.10
2022-10-22T05:07:27.464Z,24.33
2022-10-22T05:10:35.228Z,33.97
2022-10-22T05:13:41.565Z,38.00
2022-10-22T05:16:49.127Z,38.67
2022-10-22T05:19:55.687Z,30.10
2022-10-22T05:23:01.894Z,28.63
2022-10-22T05:26:11.282Z,25.50
2022-10-22T05:29:17.593Z,20.13
2022-10-22T05:32:24.324Z,25.57
2022-10-22T05:35:30.614Z,27.87
2022-10-22T05:38:37.583Z,28.47
2022-10-22T05:41:45.127Z,29.60
2022-10-22T05:44:51.315Z,45.20
2022-10-22T05:47:57.506Z,45.90
2022-10-22T05:51:05.683Z,43.57
2022-10-22T05:54:18.405Z,33.20
2022-10-22T05:57:25.810Z,25.47
2022-10-22T06:00:31.882Z,17.93
2022-10-22T06:03:38.119Z,18.70
2022-10-22T06:06:46.314Z,19.80
2022-10-22T06:09:53.906Z,31.40
2022-10-22T06:13:03.461Z,32.97
2022-10-22T06:16:09.652Z,18.70
2022-10-22T06:19:18.017Z,30.00
2022-10-22T06:22:24.095Z,46.10
2022-10-22T06:25:30.596Z,79.60
2022-10-22T06:28:39.311Z,36.00
2022-10-22T06:31:45.482Z,16.20
2022-10-22T06:34:52.095Z,13.10
2022-10-22T06:37:58.364Z,13.23
2022-10-22T06:41:05.880Z,15.93
2022-10-22T06:44:16.431Z,14.70
2022-10-22T06:47:22.692Z,17.40
2022-10-22T06:50:29.161Z,17.43
2022-10-22T06:53:36.468Z,19.10
2022-10-22T06:56:43.025Z,22.03
2022-10-22T06:59:50.775Z,20.17
2022-10-22T07:02:59.168Z,24.60
2022-10-22T07:06:10.585Z,17.17
2022-10-22T07:12:28.187Z,16.10
2022-10-22T07:15:35.596Z,13.53
2022-10-22T07:18:42.341Z,14.80
2022-10-22T07:21:48.447Z,13.70
2022-10-22T07:24:54.752Z,13.80
2022-10-22T07:28:01.041Z,12.80
2022-10-22T07:31:17.741Z,14.17
2022-10-22T07:34:23.940Z,14.03
2022-10-22T07:37:30.048Z,13.87
2022-10-22T07:40:36.889Z,12.93
2022-10-22T07:43:43.268Z,15.67
2022-10-22T07:46:50.815Z,13.20
2022-10-22T07:49:56.875Z,13.87
2022-10-22T07:53:03.376Z,11.93
2022-10-22T07:56:09.724Z,17.33
2022-10-22T07:59:16.048Z,14.33
2022-10-22T08:02:23.977Z,15.67
2022-10-22T08:05:30.138Z,14.67
2022-10-22T08:08:36.661Z,11.87
2022-10-22T08:11:42.857Z,11.60
2022-10-22T08:14:49.157Z,10.87
2022-10-22T08:17:56.838Z,9.83
2022-10-22T08:21:02.802Z,8.20
2022-10-22T08:24:09.561Z,10.20
2022-10-22T08:27:15.739Z,7.83
2022-10-22T08:30:21.884Z,9.50
2022-10-22T08:33:29.459Z,8.23
2022-10-22T08:36:35.913Z,7.57
2022-10-22T08:39:42.236Z,8.80
2022-10-22T08:43:36.696Z,9.47
2022-10-22T08:46:59.601Z,9.60
2022-10-22T08:50:10.916Z,6.93
2022-10-22T08:53:19.454Z,8.07
2022-10-22T08:56:26.008Z,7.27
2022-10-22T08:59:41.200Z,8.47
2022-10-22T09:03:02.919Z,9.53
2022-10-22T09:06:14.923Z,7.57
2022-10-22T09:09:22.595Z,8.03
2022-10-22T09:12:29.666Z,8.70
2022-10-22T09:15:36.053Z,9.53
2022-10-22T09:18:47.688Z,7.40
2022-10-22T09:22:02.870Z,8.53
2022-10-22T09:25:21.195Z,7.70
2022-10-22T09:28:27.499Z,9.10
2022-10-22T09:31:34.722Z,8.40
2022-10-22T09:34:40.831Z,7.80
2022-10-22T09:37:53.195Z,8.33
2022-10-22T09:41:03.992Z,8.73
2022-10-22T09:44:14.176Z,8.77
2022-10-22T09:47:42.921Z,9.73
2022-10-22T09:51:01.803Z,9.90
2022-10-22T09:54:17.172Z,14.30
2022-10-22T09:57:23.988Z,9.07
2022-10-22T10:00:31.599Z,8.50
2022-10-22T10:03:37.743Z,8.60
2022-10-22T10:06:45.942Z,8.00
2022-10-22T10:09:55.380Z,8.00
2022-10-22T10:13:13.783Z,9.00
2022-10-22T10:16:38.195Z,7.30
2022-10-22T10:20:01.380Z,8.10
2022-10-22T10:23:23.120Z,7.27
2022-10-22T10:26:40.512Z,8.40
2022-10-22T10:29:55.639Z,7.80
2022-10-22T10:33:15.830Z,10.07
2022-10-22T10:36:32.574Z,8.07
2022-10-22T10:39:50.727Z,8.87
2022-10-22T10:43:03.996Z,6.90
2022-10-22T10:46:19.114Z,7.50
2022-10-22T10:49:27.418Z,7.40
2022-10-22T10:52:39.777Z,6.57
2022-10-22T10:55:58.404Z,11.93
2022-10-22T10:59:24.938Z,8.87
2022-10-22T11:03:12.454Z,11.53
2022-10-22T11:06:24.557Z,8.47
2022-10-22T11:09:37.722Z,7.20
2022-10-22T11:12:48.917Z,6.30
2022-10-22T11:16:00.788Z,7.50
2022-10-22T11:19:22.545Z,5.90
2022-10-22T11:22:38.453Z,6.80
2022-10-22T11:25:47.261Z,6.97
2022-10-22T11:28:56.183Z,6.37
2022-10-22T11:32:05.261Z,6.13
2022-10-22T11:35:16.716Z,6.00
2022-10-22T11:38:27.193Z,6.60
2022-10-22T11:41:35.695Z,7.87
2022-10-22T11:45:01.024Z,7.00
2022-10-22T11:48:18.986Z,6.17
2022-10-22T11:51:35.502Z,5.83
2022-10-22T11:54:45.380Z,6.20
2022-10-22T11:57:51.651Z,7.17
2022-10-22T12:00:59.189Z,7.57
2022-10-22T12:04:22.683Z,6.20
2022-10-22T12:07:35.465Z,6.07
2022-10-22T12:10:56.992Z,5.00
2022-10-22T12:14:15.901Z,4.10
2022-10-22T12:17:24.064Z,4.60
2022-10-22T12:20:32.490Z,5.13
2022-10-22T12:23:39.017Z,4.10
2022-10-22T12:26:46.083Z,5.00
2022-10-22T12:29:57.258Z,3.87
2022-10-22T12:33:05.444Z,4.83
2022-10-22T12:36:19.161Z,4.70
2022-10-22T12:39:28.691Z,6.03
2022-10-22T12:42:38.215Z,4.30
2022-10-22T12:45:46.623Z,4.70
2022-10-22T12:48:52.746Z,4.33
2022-10-22T12:52:04.458Z,4.80
2022-10-22T12:55:16.139Z,4.60
2022-10-22T12:58:26.652Z,3.93
2022-10-22T13:01:37.685Z,3.97
2022-10-22T13:04:44.207Z,4.37
2022-10-22T13:07:53.636Z,4.93
2022-10-22T13:11:09.382Z,4.40
2022-10-22T13:14:21.529Z,4.40
2022-10-22T13:17:41.218Z,3.80
2022-10-22T13:20:56.705Z,3.93
2022-10-22T13:24:20.520Z,5.17
2022-10-22T13:27:27.565Z,5.40
2022-10-22T13:30:35.554Z,3.90
2022-10-22T13:33:44.545Z,4.10
2022-10-22T13:36:51.033Z,4.13
2022-10-22T13:39:58.840Z,4.63
2022-10-22T13:43:04.824Z,4.60
2022-10-22T13:46:11.754Z,4.83
2022-10-22T13:49:20.992Z,4.60
2022-10-22T13:52:34.651Z,4.60
2022-10-22T13:55:42.210Z,6.13
2022-10-22T13:58:49.489Z,4.97
2022-10-22T14:01:57.087Z,5.20
2022-10-22T14:05:04.574Z,4.93
2022-10-22T14:08:13.922Z,4.87
2022-10-22T14:11:21.817Z,4.80
2022-10-22T14:14:28.238Z,9.57
2022-10-22T14:17:34.854Z,7.90
2022-10-22T14:20:43.264Z,7.70
2022-10-22T14:23:51.287Z,6.57
2022-10-22T14:26:59.127Z,5.45
2022-10-22T14:30:05.951Z,5.23
2022-10-22T14:33:16.354Z,5.77
2022-10-22T14:36:22.611Z,6.50
2022-10-22T14:39:28.973Z,6.43
2022-10-22T14:42:41.746Z,6.50
2022-10-22T14:45:48.340Z,5.87
2022-10-22T14:48:54.339Z,8.23
2022-10-22T14:52:00.796Z,10.43
2022-10-22T14:55:08.507Z,7.53
2022-10-22T14:58:16.251Z,7.70
2022-10-22T15:01:22.538Z,8.43
2022-10-22T15:04:30.585Z,12.80
2022-10-22T15:07:37.199Z,12.27
2022-10-22T15:10:43.967Z,14.30
2022-10-22T15:13:51.458Z,17.00
2022-10-22T15:16:57.767Z,9.23
2022-10-22T15:20:05.572Z,8.77
2022-10-22T15:23:11.919Z,12.30
2022-10-22T15:26:18.989Z,13.90
2022-10-22T15:29:26.580Z,15.67
2022-10-22T15:32:33.722Z,15.63
2022-10-22T15:35:40.078Z,17.33
2022-10-22T15:38:46.418Z,17.80
2022-10-22T15:41:53.567Z,17.17
2022-10-22T15:45:02.325Z,23.20
2022-10-22T15:48:09.683Z,25.80
2022-10-22T15:51:19.892Z,26.53
2022-10-22T15:54:28.789Z,38.57
2022-10-22T15:57:34.912Z,45.57
2022-10-22T16:00:42.787Z,61.53
2022-10-22T16:03:52.527Z,44.13
2022-10-22T16:06:59.249Z,48.67
2022-10-22T16:10:07.743Z,70.27
2022-10-22T16:13:14.045Z,59.67
2022-10-22T16:16:22.450Z,34.30
2022-10-22T16:19:28.959Z,21.03
2022-10-22T16:22:35.482Z,32.23
2022-10-22T16:25:42.591Z,38.43
2022-10-22T16:28:49.787Z,41.07
2022-10-22T16:31:57.324Z,46.03
2022-10-22T16:35:03.427Z,41.03
2022-10-22T16:38:10.972Z,59.50
2022-10-22T16:41:18.762Z,49.23
2022-10-22T16:44:25.365Z,36.77
2022-10-22T16:47:33.115Z,29.03
2022-10-22T16:50:41.392Z,31.67
2022-10-22T16:53:47.989Z,21.50
2022-10-22T16:56:54.011Z,26.73
2022-10-22T17:00:00.342Z,22.77
2022-10-22T17:03:08.204Z,30.67
2022-10-22T17:06:15.271Z,53.67
2022-10-22T17:09:21.580Z,56.03
2022-10-22T17:12:28.377Z,59.33
2022-10-22T17:15:34.568Z,54.60
2022-10-22T17:21:55.916Z,34.73
2022-10-22T17:25:13.077Z,38.23
2022-10-22T17:28:19.307Z,109.40
2022-10-22T17:31:27.773Z,64.73
2022-10-22T17:34:35.023Z,53.40
2022-10-22T17:37:41.199Z,44.00
2022-10-22T17:40:47.718Z,30.70
2022-10-22T17:43:54.393Z,39.10
2022-10-22T17:47:01.228Z,26.87
2022-10-22T17:50:10.447Z,64.67
2022-10-22T17:53:16.743Z,52.07
2022-10-22T17:56:24.873Z,47.27
2022-10-22T17:59:31.266Z,31.23
2022-10-22T18:02:38.001Z,45.97
2022-10-22T18:05:45.995Z,36.47
2022-10-22T18:12:03.017Z,25.03
2022-10-22T18:15:10.191Z,32.37
2022-10-22T18:18:16.679Z,30.77
2022-10-22T18:21:26.575Z,72.03
2022-10-22T18:24:32.767Z,31.47
2022-10-22T18:27:39.024Z,32.93
2022-10-22T18:30:45.783Z,27.93
2022-10-22T18:37:04.885Z,25.47
2022-10-22T18:40:14.573Z,28.83
2022-10-22T18:43:20.693Z,26.90
2022-10-22T18:46:28.294Z,30.87
2022-10-22T18:49:34.440Z,32.57
2022-10-22T18:52:42.296Z,37.47
2022-10-22T18:55:48.553Z,30.20
2022-10-22T18:58:54.906Z,36.87
2022-10-22T19:02:01.424Z,35.63
2022-10-22T19:05:08.581Z,29.73
2022-10-22T19:08:17.442Z,23.10
2022-10-22T19:11:24.542Z,27.07
2022-10-22T19:14:31.034Z,21.53
2022-10-22T19:17:37.387Z,26.67
2022-10-22T19:20:45.248Z,28.80
2022-10-22T19:23:52.925Z,25.07
2022-10-22T19:26:59.124Z,25.80
2022-10-22T19:30:05.998Z,26.57
2022-10-22T19:33:12.283Z,18.83
2022-10-22T19:36:20.101Z,29.30
2022-10-22T19:39:27.864Z,31.20
2022-10-22T19:42:34.349Z,27.33
2022-10-22T19:45:41.686Z,23.50
2022-10-22T19:48:48.834Z,17.97
2022-10-22T19:51:55.376Z,22.43
2022-10-22T19:55:03.337Z,14.90
2022-10-22T19:58:09.628Z,14.07
2022-10-22T20:01:18.276Z,13.37
2022-10-22T20:04:28.107Z,15.50
2022-10-22T20:07:34.847Z,15.90
2022-10-22T20:10:42.352Z,18.17
2022-10-22T20:13:51.396Z,17.13
2022-10-22T20:16:58.846Z,25.77
2022-10-22T20:20:05.948Z,31.77
2022-10-22T20:23:12.144Z,32.43
2022-10-22T20:26:20.280Z,39.90
2022-10-22T20:29:26.545Z,44.13
2022-10-22T20:32:33.384Z,42.27
2022-10-22T20:35:40.306Z,25.90
2022-10-22T20:38:48.359Z,15.27
2022-10-22T20:41:55.830Z,14.60
2022-10-22T20:45:01.807Z,20.57
2022-10-22T20:48:08.666Z,28.47
2022-10-22T20:51:15.393Z,25.63
2022-10-22T20:54:21.399Z,20.70
2022-10-22T20:57:29.606Z,15.57
2022-10-22T21:00:36.264Z,15.63
2022-10-22T21:03:42.659Z,20.77
2022-10-22T21:06:50.353Z,32.97
2022-10-22T21:09:56.392Z,17.07
2022-10-22T21:13:04.031Z,14.53
2022-10-22T21:16:11.600Z,16.47
2022-10-22T21:19:18.989Z,15.60
2022-10-22T21:22:24.907Z,19.10
2022-10-22T21:25:30.967Z,12.33
2022-10-22T21:28:39.242Z,11.20
2022-10-22T21:31:45.384Z,11.87
2022-10-22T21:34:51.638Z,8.30
2022-10-22T21:37:57.817Z,8.33
2022-10-22T21:41:06.238Z,7.63
2022-10-22T21:44:14.012Z,7.27
2022-10-22T21:47:20.689Z,8.17
2022-10-22T21:50:26.960Z,7.43
2022-10-22T21:53:33.385Z,6.33
2022-10-22T21:56:40.405Z,9.20
2022-10-22T21:59:48.098Z,7.73
2022-10-22T22:02:54.465Z,11.63
2022-10-22T22:06:01.695Z,8.93
2022-10-22T22:09:08.148Z,8.40
2022-10-22T22:12:14.159Z,8.43
2022-10-22T22:15:21.863Z,8.97
2022-10-22T22:18:27.898Z,6.27
2022-10-22T22:21:35.169Z,9.87
2022-10-22T22:24:41.264Z,6.90
2022-10-22T22:27:47.712Z,7.47
2022-10-22T22:30:55.273Z,7.27
2022-10-22T22:34:02.610Z,7.90
2022-10-22T22:37:09.234Z,6.80
2022-10-22T22:40:15.566Z,6.80
2022-10-22T22:43:22.075Z,7.03
2022-10-22T22:46:30.274Z,8.47
2022-10-22T22:49:37.101Z,9.03
2022-10-22T22:52:43.378Z,8.40
2022-10-22T22:55:50.491Z,8.93
2022-10-22T22:58:56.882Z,8.07
2022-10-22T23:02:04.845Z,9.40
2022-10-22T23:05:12.180Z,11.13
2022-10-22T23:08:18.940Z,7.80
2022-10-22T23:11:26.391Z,9.13
2022-10-22T23:14:33.090Z,10.90
2022-10-22T23:17:40.596Z,7.50
2022-10-22T23:20:46.798Z,7.07
2022-10-22T23:23:55.042Z,7.67
2022-10-22T23:27:03.995Z,8.10
2022-10-22T23:30:11.456Z,7.20
2022-10-22T23:33:19.497Z,8.60
2022-10-22T23:36:25.661Z,7.30
2022-10-22T23:39:32.030Z,8.17
2022-10-22T23:45:45.478Z,8.43
2022-10-22T23:48:53.896Z,9.37
2022-10-22T23:52:00.184Z,8.93
2022-10-22T23:55:07.480Z,8.00
2022-10-22T23:58:14.335Z,7.90
